createdAt,value
2023-03-31T00:00:46.744Z,11.17
2023-03-31T00:03:22.456Z,11.13
2023-03-31T00:05:53.433Z,11.10
2023-03-31T00:08:21.246Z,11.06
2023-03-31T00:10:48.344Z,11.02
2023-03-31T00:13:17.508Z,10.98
2023-03-31T00:15:44.059Z,10.99
2023-03-31T00:18:10.524Z,10.98
2023-03-31T00:20:45.786Z,10.94
2023-03-31T00:23:15.521Z,10.91
2023-03-31T00:25:44.473Z,10.91
2023-03-31T00:28:11.023Z,10.89
2023-03-31T00:30:37.477Z,10.86
2023-03-31T00:33:04.710Z,10.89
2023-03-31T00:35:45.948Z,10.87
2023-03-31T00:38:17.457Z,10.83
2023-03-31T00:40:47.288Z,10.81
2023-03-31T00:43:28.861Z,10.81
2023-03-31T00:46:03.780Z,10.79
2023-03-31T00:48:35.329Z,10.77
2023-03-31T00:51:07.516Z,10.76
2023-03-31T00:53:36.651Z,10.74
2023-03-31T00:56:09.075Z,10.72
2023-03-31T00:58:43.884Z,10.69
2023-03-31T01:01:19.310Z,10.68
2023-03-31T01:03:52.433Z,10.64
2023-03-31T01:06:23.698Z,10.63
2023-03-31T01:08:51.890Z,10.61
2023-03-31T01:11:23.364Z,10.58
2023-03-31T01:13:52.868Z,10.59
2023-03-31T01:16:22.772Z,10.56
2023-03-31T01:18:50.516Z,10.57
2023-03-31T01:21:50.377Z,10.60
2023-03-31T01:24:55.191Z,10.61
2023-03-31T01:27:58.411Z,10.62
2023-03-31T01:31:21.506Z,10.64
2023-03-31T01:34:12.283Z,10.67
2023-03-31T01:37:04.847Z,10.68
2023-03-31T01:39:43.267Z,10.65
2023-03-31T01:42:41.127Z,10.66
2023-03-31T01:45:27.649Z,10.66
2023-03-31T01:47:59.753Z,10.67
2023-03-31T01:50:41.255Z,10.65
2023-03-31T01:53:38.921Z,10.61
2023-03-31T01:56:34.940Z,10.57
2023-03-31T01:59:23.260Z,10.55
2023-03-31T02:02:19.710Z,10.54
2023-03-31T02:04:54.826Z,10.56
2023-03-31T02:07:30.386Z,10.54
2023-03-31T02:10:01.666Z,10.50
2023-03-31T02:12:30.995Z,10.47
2023-03-31T02:15:02.049Z,10.50
2023-03-31T02:17:32.720Z,10.48
2023-03-31T02:20:09.491Z,10.43
2023-03-31T02:22:39.232Z,10.42
2023-03-31T02:25:10.595Z,10.42
2023-03-31T02:27:47.435Z,10.41
2023-03-31T02:30:14.828Z,10.41
2023-03-31T02:32:44.176Z,10.43
2023-03-31T02:35:15.668Z,10.42
2023-03-31T02:37:43.630Z,10.40
2023-03-31T02:40:19.543Z,10.37
2023-03-31T02:42:46.407Z,10.38
2023-03-31T02:45:49.403Z,10.39
2023-03-31T02:48:20.003Z,10.40
2023-03-31T02:51:10.722Z,10.38
2023-03-31T02:53:37.173Z,10.39
2023-03-31T02:56:06.816Z,10.39
2023-03-31T02:58:37.807Z,10.41
2023-03-31T03:01:20.903Z,10.39
2023-03-31T03:03:53.751Z,10.43
2023-03-31T03:06:57.516Z,10.45
2023-03-31T03:09:48.194Z,10.44
2023-03-31T03:12:25.260Z,10.46
2023-03-31T03:14:57.807Z,10.43
2023-03-31T03:17:33.586Z,10.44
2023-03-31T03:20:02.059Z,10.44
2023-03-31T03:22:28.514Z,10.46
2023-03-31T03:24:55.425Z,10.46
2023-03-31T03:27:24.738Z,10.46
2023-03-31T03:29:51.445Z,10.47
2023-03-31T03:32:17.969Z,10.50
2023-03-31T03:34:44.549Z,10.49
2023-03-31T03:37:11.659Z,10.51
2023-03-31T03:39:38.151Z,10.52
2023-03-31T03:42:04.935Z,10.53
2023-03-31T03:44:31.419Z,10.54
2023-03-31T03:46:58.185Z,10.54
2023-03-31T03:49:24.671Z,10.60
2023-03-31T03:51:51.623Z,10.63
2023-03-31T03:54:18.209Z,10.64
2023-03-31T03:56:44.798Z,10.61
2023-03-31T03:59:12.133Z,10.60
2023-03-31T04:01:38.636Z,10.58
2023-03-31T04:04:05.490Z,10.61
2023-03-31T04:06:31.952Z,10.60
2023-03-31T04:08:58.502Z,10.57
2023-03-31T04:11:24.991Z,10.53
2023-03-31T04:13:54.324Z,10.52
2023-03-31T04:16:20.819Z,10.52
2023-03-31T04:18:48.672Z,10.46
2023-03-31T04:21:22.814Z,10.42
2023-03-31T04:24:04.773Z,10.41
2023-03-31T04:26:43.788Z,10.44
2023-03-31T04:29:16.492Z,10.45
2023-03-31T04:31:44.025Z,10.44
2023-03-31T04:34:15.779Z,10.43
2023-03-31T04:36:47.488Z,10.43
2023-03-31T04:39:26.839Z,10.45
2023-03-31T04:41:54.194Z,10.44
2023-03-31T04:44:20.775Z,10.41
2023-03-31T04:46:47.316Z,10.46
2023-03-31T04:49:14.137Z,10.48
2023-03-31T04:51:40.601Z,10.46
2023-03-31T04:54:07.265Z,10.44
2023-03-31T04:56:34.137Z,10.47
2023-03-31T04:59:00.755Z,10.47
2023-03-31T05:01:27.327Z,10.51
2023-03-31T05:03:53.896Z,10.50
2023-03-31T05:06:20.330Z,10.52
2023-03-31T05:08:46.834Z,10.53
2023-03-31T05:11:13.286Z,10.55
2023-03-31T05:13:39.808Z,10.58
2023-03-31T05:16:12.264Z,10.56
2023-03-31T05:18:38.901Z,10.58
2023-03-31T05:21:23.974Z,10.59
2023-03-31T05:23:51.003Z,10.62
2023-03-31T05:26:17.513Z,10.62
2023-03-31T05:28:44.194Z,10.63
2023-03-31T05:31:13.089Z,10.66
2023-03-31T05:33:41.353Z,10.68
2023-03-31T05:36:12.628Z,10.68
2023-03-31T05:38:40.228Z,10.66
2023-03-31T05:41:09.124Z,10.65
2023-03-31T05:43:37.115Z,10.65
2023-03-31T05:46:04.571Z,10.65
2023-03-31T05:48:31.740Z,10.66
2023-03-31T05:50:59.545Z,10.67
2023-03-31T05:53:26.799Z,10.67
2023-03-31T05:56:05.618Z,10.67
2023-03-31T05:58:35.213Z,10.68
2023-03-31T06:01:23.229Z,10.67
2023-03-31T06:03:50.784Z,10.68
2023-03-31T06:06:18.156Z,10.69
2023-03-31T06:08:46.546Z,10.70
2023-03-31T06:11:16.347Z,10.72
2023-03-31T06:13:43.082Z,10.70
2023-03-31T06:16:11.517Z,10.71
2023-03-31T06:18:38.747Z,10.72
2023-03-31T06:21:06.452Z,10.74
2023-03-31T06:23:34.165Z,10.78
2023-03-31T06:26:07.048Z,10.83
2023-03-31T06:28:34.935Z,10.86
2023-03-31T06:31:04.001Z,10.88
2023-03-31T06:33:31.703Z,10.88
2023-03-31T06:35:59.624Z,10.91
2023-03-31T06:38:26.209Z,10.92
2023-03-31T06:40:52.728Z,10.91
2023-03-31T06:43:20.374Z,10.93
2023-03-31T06:45:48.114Z,10.95
2023-03-31T06:48:14.776Z,10.96
2023-03-31T06:50:42.157Z,10.97
2023-03-31T06:53:09.555Z,11.00
2023-03-31T06:55:36.954Z,10.99
2023-03-31T06:58:04.563Z,11.01
2023-03-31T07:00:32.356Z,11.03
2023-03-31T07:02:59.417Z,11.04
2023-03-31T07:05:28.985Z,11.04
2023-03-31T07:07:56.866Z,11.05
2023-03-31T07:10:25.284Z,11.05
2023-03-31T07:12:52.091Z,11.07
2023-03-31T07:15:18.980Z,11.09
2023-03-31T07:17:45.770Z,11.09
2023-03-31T07:20:17.689Z,11.09
2023-03-31T07:22:48.407Z,11.09
2023-03-31T07:25:17.084Z,11.08
2023-03-31T07:27:44.321Z,11.05
2023-03-31T07:30:17.012Z,11.04
2023-03-31T07:32:46.206Z,11.00
2023-03-31T07:35:13.179Z,11.04
2023-03-31T07:37:44.914Z,11.09
2023-03-31T07:40:15.794Z,11.16
2023-03-31T07:42:42.814Z,11.23
2023-03-31T07:45:09.871Z,11.31
2023-03-31T07:47:37.045Z,11.36
2023-03-31T07:50:03.671Z,11.40
2023-03-31T07:52:30.318Z,11.43
2023-03-31T07:54:56.886Z,11.38
2023-03-31T07:57:23.439Z,11.33
2023-03-31T07:59:49.995Z,11.27
2023-03-31T08:02:18.235Z,11.25
2023-03-31T08:04:46.879Z,11.26
2023-03-31T08:07:15.645Z,11.23
2023-03-31T08:09:44.463Z,11.22
2023-03-31T08:12:11.317Z,11.22
2023-03-31T08:14:41.019Z,11.20
2023-03-31T08:17:08.024Z,11.25
2023-03-31T08:19:37.011Z,11.31
2023-03-31T08:22:06.454Z,11.34
2023-03-31T08:24:32.966Z,11.37
2023-03-31T08:26:59.417Z,11.36
2023-03-31T08:29:26.033Z,11.39
2023-03-31T08:31:54.304Z,11.42
2023-03-31T08:34:21.037Z,11.47
2023-03-31T08:36:47.505Z,11.50
2023-03-31T08:39:14.002Z,11.53
2023-03-31T08:42:01.461Z,11.50
2023-03-31T08:44:59.300Z,11.50
2023-03-31T08:47:29.272Z,11.52
2023-03-31T08:50:00.391Z,11.50
2023-03-31T08:52:34.607Z,11.54
2023-03-31T08:55:06.726Z,11.55
2023-03-31T08:57:42.890Z,11.60
2023-03-31T09:00:18.294Z,11.62
2023-03-31T09:03:37.171Z,11.64
2023-03-31T09:06:14.768Z,11.60
2023-03-31T09:08:42.364Z,11.59
2023-03-31T09:11:13.655Z,11.57
2023-03-31T09:13:45.368Z,11.50
2023-03-31T09:16:18.956Z,11.47
2023-03-31T09:18:46.994Z,11.42
2023-03-31T09:21:22.591Z,11.33
2023-03-31T09:23:53.723Z,11.26
2023-03-31T09:26:39.222Z,11.17
2023-03-31T09:29:15.542Z,11.07
2023-03-31T09:31:44.650Z,10.95
2023-03-31T09:34:25.154Z,10.86
2023-03-31T09:36:52.445Z,10.80
2023-03-31T09:39:18.939Z,10.76
2023-03-31T09:41:51.322Z,10.75
2023-03-31T09:44:36.392Z,10.70
2023-03-31T09:47:07.750Z,10.62
2023-03-31T09:49:37.638Z,10.60
2023-03-31T09:52:21.511Z,10.57
2023-03-31T09:54:53.321Z,10.52
2023-03-31T09:57:24.714Z,10.48
2023-03-31T09:59:52.586Z,10.51
2023-03-31T10:02:35.656Z,10.56
2023-03-31T10:05:03.611Z,10.58
2023-03-31T10:07:30.760Z,10.56
2023-03-31T10:09:57.356Z,10.58
2023-03-31T10:12:28.144Z,10.59
2023-03-31T10:15:13.681Z,10.57
2023-03-31T10:17:54.948Z,10.56
2023-03-31T10:20:37.380Z,10.52
2023-03-31T10:23:15.945Z,10.47
2023-03-31T10:25:43.359Z,10.48
2023-03-31T10:28:13.071Z,10.46
2023-03-31T10:30:40.833Z,10.43
2023-03-31T10:33:22.791Z,10.39
2023-03-31T10:35:55.376Z,10.37
2023-03-31T10:38:25.368Z,10.39
2023-03-31T10:40:54.874Z,10.36
2023-03-31T10:43:45.601Z,10.37
2023-03-31T10:46:12.264Z,10.36
2023-03-31T10:48:41.564Z,10.38
2023-03-31T10:51:12.192Z,10.39
2023-03-31T10:53:46.397Z,10.43
2023-03-31T10:56:37.004Z,10.43
2023-03-31T10:59:39.774Z,10.40
2023-03-31T11:02:34.060Z,10.41
2023-03-31T11:05:32.545Z,10.47
2023-03-31T11:08:23.997Z,10.47
2023-03-31T11:11:05.382Z,10.55
2023-03-31T11:13:44.173Z,10.56
2023-03-31T11:16:32.386Z,10.60
2023-03-31T11:19:21.033Z,10.70
2023-03-31T11:22:05.987Z,10.76
2023-03-31T11:24:54.268Z,10.86
2023-03-31T11:27:42.164Z,10.90
2023-03-31T11:30:39.495Z,10.92
2023-03-31T11:33:35.519Z,10.96
2023-03-31T11:36:28.586Z,11.00
2023-03-31T11:39:28.055Z,11.02
2023-03-31T11:42:03.659Z,11.08
2023-03-31T11:44:38.832Z,11.16
2023-03-31T11:47:22.285Z,11.22
2023-03-31T11:49:55.393Z,11.26
2023-03-31T11:52:32.806Z,11.30
2023-03-31T11:55:21.527Z,11.39
2023-03-31T11:58:04.055Z,11.51
2023-03-31T12:00:35.726Z,11.58
2023-03-31T12:03:19.761Z,11.65
2023-03-31T12:05:51.537Z,11.67
2023-03-31T12:08:39.023Z,11.74
2023-03-31T12:11:12.914Z,11.79
2023-03-31T12:13:52.446Z,11.82
2023-03-31T12:16:23.436Z,11.87
2023-03-31T12:19:02.321Z,11.95
2023-03-31T12:21:30.806Z,11.95
2023-03-31T12:23:57.289Z,11.94
2023-03-31T12:26:49.035Z,11.93
2023-03-31T12:29:47.649Z,12.06
2023-03-31T12:32:26.305Z,12.13
2023-03-31T12:35:04.254Z,12.20
2023-03-31T12:37:57.809Z,12.26
2023-03-31T12:40:34.184Z,12.35
2023-03-31T12:43:19.323Z,12.37
2023-03-31T12:46:23.398Z,12.35
2023-03-31T12:49:06.551Z,12.33
2023-03-31T12:51:53.736Z,12.25
2023-03-31T12:54:48.768Z,12.08
2023-03-31T12:57:26.429Z,11.97
2023-03-31T13:00:19.329Z,11.98
2023-03-31T13:02:46.067Z,11.95
2023-03-31T13:05:37.604Z,11.89
2023-03-31T13:08:05.797Z,11.88
2023-03-31T13:10:33.378Z,11.86
2023-03-31T13:13:13.478Z,11.88
2023-03-31T13:15:40.143Z,11.93
2023-03-31T13:18:08.137Z,11.94
2023-03-31T13:20:37.813Z,11.92
2023-03-31T13:23:22.796Z,11.91
2023-03-31T13:25:54.071Z,11.90
2023-03-31T13:28:23.548Z,11.59
2023-03-31T13:31:01.951Z,11.45
2023-03-31T13:33:42.788Z,11.16
2023-03-31T13:36:18.396Z,10.96
2023-03-31T13:38:53.115Z,10.76
2023-03-31T13:42:06.259Z,10.77
2023-03-31T13:44:51.392Z,10.74
2023-03-31T13:47:36.144Z,10.74
2023-03-31T13:50:31.950Z,10.60
2023-03-31T13:53:17.798Z,10.70
2023-03-31T13:55:54.832Z,10.78
2023-03-31T13:58:41.920Z,10.79
2023-03-31T14:01:32.073Z,10.82
2023-03-31T14:04:13.411Z,10.92
2023-03-31T14:06:52.318Z,10.98
2023-03-31T14:09:49.911Z,11.11
2023-03-31T14:12:22.262Z,11.19
2023-03-31T14:14:52.994Z,11.22
2023-03-31T14:17:19.655Z,11.23
2023-03-31T14:20:13.363Z,11.23
2023-03-31T14:23:09.527Z,11.20
2023-03-31T14:25:42.145Z,11.15
2023-03-31T14:28:48.239Z,11.08
2023-03-31T14:31:45.567Z,11.06
2023-03-31T14:34:45.366Z,10.97
2023-03-31T14:37:21.060Z,10.91
2023-03-31T14:39:50.320Z,10.86
2023-03-31T14:42:19.678Z,10.81
2023-03-31T14:44:48.519Z,10.74
2023-03-31T14:47:23.766Z,10.71
2023-03-31T14:50:01.230Z,10.69
2023-03-31T14:52:31.781Z,10.65
2023-03-31T14:54:59.458Z,10.66
2023-03-31T14:57:38.150Z,10.66
2023-03-31T15:00:08.393Z,10.70
2023-03-31T15:02:40.889Z,10.75
2023-03-31T15:05:30.621Z,10.86
2023-03-31T15:08:06.353Z,10.88
2023-03-31T15:10:38.348Z,10.86
2023-03-31T15:13:09.260Z,10.91
2023-03-31T15:15:35.949Z,10.96
2023-03-31T15:18:03.184Z,11.00
2023-03-31T15:20:38.244Z,11.08
2023-03-31T15:23:28.177Z,11.07
2023-03-31T15:25:58.836Z,11.05
2023-03-31T15:28:29.174Z,11.03
2023-03-31T15:31:09.081Z,11.14
2023-03-31T15:33:41.455Z,11.26
2023-03-31T15:36:11.211Z,11.31
2023-03-31T15:38:38.285Z,11.30
2023-03-31T15:41:12.522Z,11.42
2023-03-31T15:43:42.204Z,11.52
2023-03-31T15:46:11.691Z,11.59
2023-03-31T15:48:50.325Z,11.58
2023-03-31T15:51:20.573Z,11.55
2023-03-31T15:53:50.977Z,11.38
2023-03-31T15:56:44.244Z,11.31
2023-03-31T16:02:23.685Z,11.10
2023-03-31T16:04:54.708Z,11.05
2023-03-31T16:07:27.588Z,10.96
2023-03-31T16:10:01.019Z,10.89
2023-03-31T16:12:30.277Z,10.86
2023-03-31T16:15:02.682Z,10.84
2023-03-31T16:17:35.311Z,10.86
2023-03-31T16:20:10.994Z,10.80
2023-03-31T16:22:44.652Z,10.79
2023-03-31T16:25:20.757Z,10.78
2023-03-31T16:27:59.953Z,10.78
2023-03-31T16:30:41.068Z,10.81
2023-03-31T16:33:14.005Z,10.80
2023-03-31T16:35:55.385Z,10.78
2023-03-31T16:38:29.593Z,10.77
2023-03-31T16:40:57.661Z,10.74
2023-03-31T16:43:27.168Z,10.73
2023-03-31T16:45:56.641Z,10.70
2023-03-31T16:48:25.485Z,10.72
2023-03-31T16:50:57.534Z,10.72
2023-03-31T16:53:26.250Z,10.73
2023-03-31T16:55:57.435Z,10.73
2023-03-31T16:58:26.218Z,10.71
2023-03-31T17:00:53.570Z,10.69
2023-03-31T17:03:20.573Z,10.63
2023-03-31T17:05:53.039Z,10.66
2023-03-31T17:08:24.123Z,10.64
2023-03-31T17:10:53.624Z,10.63
2023-03-31T17:13:20.589Z,10.61
2023-03-31T17:15:47.743Z,10.59
2023-03-31T17:18:14.573Z,10.58
2023-03-31T17:20:41.108Z,10.49
2023-03-31T17:23:07.828Z,10.46
2023-03-31T17:25:37.420Z,10.46
2023-03-31T17:28:04.760Z,10.47
2023-03-31T17:30:32.709Z,10.47
2023-03-31T17:33:00.220Z,10.44
2023-03-31T17:35:26.967Z,10.42
2023-03-31T17:37:54.361Z,10.41
2023-03-31T17:40:26.796Z,10.36
2023-03-31T17:42:54.743Z,10.34
2023-03-31T17:45:21.603Z,10.29
2023-03-31T17:47:48.163Z,10.30
2023-03-31T17:50:14.619Z,10.25
2023-03-31T17:52:41.208Z,10.25
2023-03-31T17:55:08.119Z,10.22
2023-03-31T17:57:36.953Z,10.21
2023-03-31T18:00:05.929Z,10.24
2023-03-31T18:02:32.568Z,10.25
2023-03-31T18:04:59.156Z,10.24
2023-03-31T18:07:25.659Z,10.28
2023-03-31T18:09:52.174Z,10.30
2023-03-31T18:12:18.849Z,10.36
2023-03-31T18:14:46.053Z,10.41
2023-03-31T18:17:14.964Z,10.42
2023-03-31T18:19:43.043Z,10.42
2023-03-31T18:22:10.115Z,10.43
2023-03-31T18:24:38.353Z,10.45
2023-03-31T18:27:05.191Z,10.45
2023-03-31T18:29:31.707Z,10.47
2023-03-31T18:31:58.659Z,10.53
2023-03-31T18:34:25.297Z,10.52
2023-03-31T18:36:52.930Z,10.51
2023-03-31T18:39:19.486Z,10.51
2023-03-31T18:41:48.600Z,10.51
2023-03-31T18:44:17.517Z,10.48
2023-03-31T18:46:45.561Z,10.50
2023-03-31T18:49:13.627Z,10.49
2023-03-31T18:51:40.415Z,10.47
2023-03-31T18:54:07.255Z,10.46
2023-03-31T18:56:33.698Z,10.50
2023-03-31T18:59:00.341Z,10.52
2023-03-31T19:01:27.240Z,10.53
2023-03-31T19:03:53.814Z,10.55
2023-03-31T19:06:22.380Z,10.53
2023-03-31T19:08:48.882Z,10.51
2023-03-31T19:11:17.080Z,10.52
2023-03-31T19:13:44.234Z,10.54
2023-03-31T19:16:12.442Z,10.56
2023-03-31T19:18:39.566Z,10.55
2023-03-31T19:21:06.357Z,10.53
2023-03-31T19:23:34.114Z,10.56
2023-03-31T19:26:00.795Z,10.55
2023-03-31T19:28:27.880Z,10.56
2023-03-31T19:30:56.564Z,10.57
2023-03-31T19:33:23.914Z,10.52
2023-03-31T19:35:51.149Z,10.53
2023-03-31T19:38:19.002Z,10.51
2023-03-31T19:40:48.460Z,10.52
2023-03-31T19:43:23.261Z,10.51
2023-03-31T19:45:51.737Z,10.48
2023-03-31T19:48:19.320Z,10.42
2023-03-31T19:50:51.100Z,10.36
2023-03-31T19:53:18.045Z,10.32
2023-03-31T19:55:44.687Z,10.28
2023-03-31T19:58:11.314Z,10.27
2023-03-31T20:00:37.891Z,10.20
2023-03-31T20:03:07.727Z,10.16
2023-03-31T20:05:34.400Z,10.13
2023-03-31T20:08:01.093Z,10.14
2023-03-31T20:10:27.649Z,10.11
2023-03-31T20:12:54.499Z,10.14
2023-03-31T20:15:21.441Z,10.15
2023-03-31T20:17:48.040Z,10.15
2023-03-31T20:20:14.512Z,10.11
2023-03-31T20:22:41.385Z,10.17
2023-03-31T20:25:08.473Z,10.17
2023-03-31T20:27:35.006Z,10.15
2023-03-31T20:30:01.757Z,10.17
2023-03-31T20:32:28.532Z,10.18
2023-03-31T20:34:57.957Z,10.19
2023-03-31T20:37:27.662Z,10.17
2023-03-31T20:39:54.109Z,10.14
2023-03-31T20:42:22.351Z,10.11
2023-03-31T20:44:52.043Z,10.10
2023-03-31T20:47:18.579Z,10.11
2023-03-31T20:49:45.096Z,10.13
2023-03-31T20:52:11.578Z,10.10
2023-03-31T20:54:38.127Z,10.09
2023-03-31T20:57:06.149Z,10.08
2023-03-31T20:59:33.134Z,10.07
2023-03-31T21:02:03.194Z,10.10
2023-03-31T21:04:33.298Z,10.10
2023-03-31T21:06:59.778Z,10.10
2023-03-31T21:09:26.410Z,10.10
2023-03-31T21:11:59.060Z,10.12
2023-03-31T21:14:25.570Z,10.13
2023-03-31T21:16:52.044Z,10.12
2023-03-31T21:19:18.636Z,10.11
2023-03-31T21:21:45.222Z,10.08
2023-03-31T21:24:12.770Z,10.07
2023-03-31T21:26:45.870Z,10.07
2023-03-31T21:29:12.412Z,10.02
2023-03-31T21:31:39.001Z,10.00
2023-03-31T21:34:09.136Z,10.02
2023-03-31T21:36:35.716Z,9.97
2023-03-31T21:39:02.348Z,9.97
2023-03-31T21:41:30.585Z,9.97
2023-03-31T21:44:00.426Z,10.00
2023-03-31T21:46:31.787Z,10.00
2023-03-31T21:48:58.917Z,10.01
2023-03-31T21:51:25.809Z,10.02
2023-03-31T21:53:55.424Z,9.98
2023-03-31T21:56:24.090Z,10.00
2023-03-31T21:58:53.321Z,9.99
2023-03-31T22:01:21.515Z,9.98
2023-03-31T22:03:48.836Z,9.99
2023-03-31T22:06:15.879Z,10.02
2023-03-31T22:08:42.406Z,10.00
2023-03-31T22:11:11.423Z,9.97
2023-03-31T22:13:38.590Z,9.95
2023-03-31T22:16:13.388Z,9.94
2023-03-31T22:18:39.984Z,9.93
2023-03-31T22:21:18.738Z,9.94
2023-03-31T22:23:45.895Z,9.95
2023-03-31T22:26:12.433Z,9.96
2023-03-31T22:28:39.037Z,9.97
2023-03-31T22:31:11.468Z,9.96
2023-03-31T22:33:41.286Z,9.99
2023-03-31T22:36:08.190Z,9.98
2023-03-31T22:38:34.800Z,9.98
2023-03-31T22:41:01.610Z,9.97
2023-03-31T22:43:28.198Z,9.96
2023-03-31T22:45:54.737Z,9.99
2023-03-31T22:48:21.268Z,9.98
2023-03-31T22:50:48.711Z,9.94
2023-03-31T22:53:24.369Z,9.95
2023-03-31T22:55:53.880Z,9.97
2023-03-31T22:58:33.685Z,9.95
2023-03-31T23:01:05.176Z,9.94
2023-03-31T23:03:31.691Z,9.94
2023-03-31T23:06:02.875Z,9.93
2023-03-31T23:08:29.304Z,9.97
2023-03-31T23:10:58.605Z,9.99
2023-03-31T23:13:26.872Z,10.00
2023-03-31T23:15:56.634Z,10.00
2023-03-31T23:18:24.591Z,9.98
2023-03-31T23:20:51.063Z,9.97
2023-03-31T23:23:17.562Z,9.95
2023-03-31T23:25:44.069Z,9.95
2023-03-31T23:28:10.560Z,9.93
2023-03-31T23:30:37.072Z,9.92
2023-03-31T23:33:03.906Z,9.92
2023-03-31T23:35:36.677Z,9.94
2023-03-31T23:38:05.385Z,9.93
2023-03-31T23:40:31.896Z,9.94
2023-03-31T23:42:58.341Z,9.93
2023-03-31T23:45:24.890Z,9.91
2023-03-31T23:47:51.824Z,9.89
2023-03-31T23:50:21.361Z,9.90
2023-03-31T23:52:49.096Z,9.89
2023-03-31T23:55:18.611Z,9.89
2023-03-31T23:57:45.658Z,9.85
